Time;durP1;ratioP1;P1;durP2;ratioP2;P2;SDS_P1;SDS_P2;PMS_P1;PMS_P2;Temp;Humidity;BMP_temperature;BMP_pressure;BME280_temperature;BME280_humidity;BME280_pressure;Samples;Min_cycle;Max_cycle;Signal;HPM_P1;HPM_P2
2021/10/12 00:00:19;;;;;;;1.50;1.30;;;;;;;8.38;100.00;101108.34;5093527;28;20170;-72
2021/10/12 00:02:44;;;;;;;1.57;1.43;;;;;;;8.39;100.00;101109.97;5075325;28;20406;-72
2021/10/12 00:05:10;;;;;;;2.80;1.53;;;;;;;8.38;100.00;101098.25;5093080;28;20189;-72
2021/10/12 00:07:35;;;;;;;0.60;0.60;;;;;;;8.40;100.00;101098.00;5093297;28;20169;-72
2021/10/12 00:10:03;;;;;;;1.47;1.37;;;;;;;8.43;100.00;101100.97;5075291;28;20656;-72
2021/10/12 00:12:29;;;;;;;0.87;0.87;;;;;;;8.44;100.00;101105.31;5093106;28;20178;-72
2021/10/12 00:14:54;;;;;;;1.37;1.10;;;;;;;8.47;100.00;101093.88;5092877;28;20625;-72
2021/10/12 00:17:20;;;;;;;0.60;0.60;;;;;;;8.49;100.00;101102.56;5092844;28;20177;-72
2021/10/12 00:19:45;;;;;;;0.33;0.33;;;;;;;8.51;100.00;101118.63;5074242;28;20375;-72
2021/10/12 00:22:10;;;;;;;1.03;1.03;;;;;;;8.50;100.00;101286.66;5074758;28;20197;-72
2021/10/12 00:24:36;;;;;;;0.67;0.67;;;;;;;8.49;100.00;101107.19;5092803;28;20223;-72
2021/10/12 00:27:01;;;;;;;0.93;0.80;;;;;;;8.46;100.00;101096.88;5092877;28;20209;-72
2021/10/12 00:29:27;;;;;;;7.00;2.47;;;;;;;8.46;100.00;101129.56;5074770;28;20644;-72
2021/10/12 00:31:52;;;;;;;6.50;1.50;;;;;;;8.45;100.00;101085.16;5092815;28;20292;-72
2021/10/12 00:34:18;;;;;;;0.93;0.50;;;;;;;8.45;100.00;101092.53;5092430;28;20193;-72
2021/10/12 00:36:45;;;;;;;1.60;0.77;;;;;;;8.45;100.00;101098.78;5092485;28;20621;-72
2021/10/12 00:39:10;;;;;;;2.20;1.77;;;;;;;8.43;100.00;101087.38;5074217;28;20673;-73
2021/10/12 00:41:37;;;;;;;1.17;1.10;;;;;;;8.40;100.00;101119.78;5092453;28;20166;-72
2021/10/12 00:44:03;;;;;;;3.33;2.60;;;;;;;8.34;100.00;101086.31;5074189;28;20177;-72
2021/10/12 00:46:28;;;;;;;1.63;1.10;;;;;;;8.31;100.00;101084.13;5092298;28;20174;-73
2021/10/12 00:48:56;;;;;;;3.10;1.73;;;;;;;8.30;100.00;101088.75;5092333;28;20539;-73
2021/10/12 00:51:22;;;;;;;1.00;0.97;;;;;;;8.27;100.00;101083.88;5073998;28;20201;-72
2021/10/12 00:53:47;;;;;;;0.60;0.60;;;;;;;8.26;100.00;101076.81;5073947;28;20716;-72
2021/10/12 00:56:12;;;;;;;0.40;0.40;;;;;;;8.25;100.00;101072.47;5074027;28;20576;-72
2021/10/12 00:58:38;;;;;;;1.43;1.17;;;;;;;8.24;100.00;101078.16;5091935;28;20809;-72
2021/10/12 01:01:03;;;;;;;1.10;0.73;;;;;;;8.23;100.00;101052.84;5092108;28;20256;-72
2021/10/12 01:03:29;;;;;;;0.13;0.13;;;;;;;8.23;100.00;101066.47;5092036;28;20181;-72
2021/10/12 01:05:54;;;;;;;1.97;0.73;;;;;;;8.21;100.00;101063.22;5073403;28;20269;-72
2021/10/12 01:08:19;;;;;;;1.07;0.97;;;;;;;8.22;100.00;101058.56;5091985;28;20189;-72
2021/10/12 01:10:46;;;;;;;0.47;0.47;;;;;;;8.22;100.00;101067.56;5073755;28;20613;-72
2021/10/12 01:13:11;;;;;;;1.00;0.87;;;;;;;8.23;100.00;101055.56;5073703;28;20404;-72
2021/10/12 01:15:37;;;;;;;1.10;0.97;;;;;;;8.25;100.00;101049.88;5091528;28;20261;-72
2021/10/12 01:18:02;;;;;;;0.10;0.10;;;;;;;8.29;100.00;101059.09;5073659;28;20669;-72
2021/10/12 01:20:35;;;;;;;0.90;0.90;;;;;;;8.31;100.00;101043.28;5091702;28;20226;-73
2021/10/12 01:23:01;;;;;;;1.20;1.10;;;;;;;8.34;100.00;101057.19;5091894;28;20201;-72
2021/10/12 01:25:27;;;;;;;0.30;0.30;;;;;;;8.35;100.00;101039.75;5073289;28;20185;-72
2021/10/12 01:27:53;;;;;;;4.60;2.20;;;;;;;8.38;100.00;101049.25;5091559;28;20170;-73
2021/10/12 01:30:18;;;;;;;0.70;0.70;;;;;;;8.42;100.00;101035.91;5072874;28;20174;-72
2021/10/12 01:32:45;;;;;;;0.70;0.70;;;;;;;8.41;100.00;101039.75;5072887;28;20216;-72
2021/10/12 01:35:12;;;;;;;0.13;0.13;;;;;;;8.40;100.00;101033.47;5091577;28;20174;-72
2021/10/12 01:37:37;;;;;;;0.30;0.30;;;;;;;8.37;100.00;101017.69;5073204;28;20208;-72
2021/10/12 01:40:06;;;;;;;0.20;0.20;;;;;;;8.34;100.00;101023.69;5073267;28;20544;-72
2021/10/12 01:42:31;;;;;;;1.00;0.90;;;;;;;8.34;100.00;101031.88;5073078;28;20174;-72
2021/10/12 01:45:02;;;;;;;0.23;0.23;;;;;;;8.30;100.00;101026.16;5072855;28;20322;-72
2021/10/12 01:47:28;;;;;;;0.83;0.57;;;;;;;8.27;100.00;101021.28;5091264;28;20307;-72
2021/10/12 01:49:54;;;;;;;0.50;0.50;;;;;;;8.24;100.00;101008.19;5091112;28;20166;-72
2021/10/12 01:52:19;;;;;;;0.67;0.67;;;;;;;8.22;100.00;101020.47;5073108;28;20211;-72
2021/10/12 01:54:46;;;;;;;0.87;0.60;;;;;;;8.13;100.00;101009.38;5072783;28;20182;-72
2021/10/12 01:57:12;;;;;;;0.50;0.50;;;;;;;8.13;100.00;101006.66;5091026;28;20200;-72
2021/10/12 01:59:37;;;;;;;0.40;0.40;;;;;;;8.11;100.00;101008.03;5072720;28;20835;-73
2021/10/12 02:02:03;;;;;;;2.17;0.67;;;;;;;8.06;100.00;101015.13;5091092;28;20174;-72
2021/10/12 02:04:29;;;;;;;1.83;1.47;;;;;;;8.05;100.00;100999.06;5072714;28;20188;-72
2021/10/12 02:06:55;;;;;;;1.57;1.47;;;;;;;8.01;100.00;100996.09;5090786;28;20239;-72
2021/10/12 02:09:21;;;;;;;0.83;0.67;;;;;;;8.00;100.00;100997.19;5090997;28;20216;-72
2021/10/12 02:11:46;;;;;;;0.70;0.70;;;;;;;7.98;100.00;100974.91;5072772;28;20201;-72
2021/10/12 02:14:12;;;;;;;4.97;0.77;;;;;;;7.98;100.00;100984.97;5090407;28;20641;-72
2021/10/12 02:16:37;;;;;;;1.50;1.40;;;;;;;7.95;100.00;100978.16;5090850;28;20166;-72
2021/10/12 02:19:03;;;;;;;1.23;1.20;;;;;;;7.94;100.00;100968.38;5090669;28;20557;-72
2021/10/12 02:21:28;;;;;;;0.97;0.87;;;;;;;7.90;100.00;100971.94;5072848;28;20562;-72
2021/10/12 02:23:54;;;;;;;2.10;1.30;;;;;;;7.91;100.00;100973.56;5090558;28;20193;-73
2021/10/12 02:26:19;;;;;;;1.40;1.17;;;;;;;7.90;100.00;100974.66;5072606;28;20315;-72
2021/10/12 02:28:44;;;;;;;3.17;2.17;;;;;;;7.89;100.00;100973.84;5090716;28;20231;-72
2021/10/12 02:31:10;;;;;;;1.33;0.70;;;;;;;7.90;100.00;100977.41;5090772;28;20202;-72
2021/10/12 02:33:35;;;;;;;0.77;0.57;;;;;;;7.89;100.00;100990.19;5072408;28;20656;-72
2021/10/12 02:36:00;;;;;;;0.33;0.23;;;;;;;7.90;100.00;100969.22;5072503;28;20188;-72
2021/10/12 02:38:26;;;;;;;6.80;1.80;;;;;;;7.85;100.00;100978.25;5072434;28;20208;-72
2021/10/12 02:40:52;;;;;;;0.80;0.40;;;;;;;7.85;100.00;100969.28;5090463;28;20616;-72
2021/10/12 02:43:18;;;;;;;2.10;1.87;;;;;;;7.81;100.00;100965.47;5093270;28;20170;-72
2021/10/12 02:45:43;;;;;;;2.47;2.20;;;;;;;7.81;100.00;100968.19;5076130;28;20173;-72
2021/10/12 02:48:08;;;;;;;1.27;1.17;;;;;;;7.80;100.00;100959.22;5076336;28;20177;-72
2021/10/12 02:50:34;;;;;;;2.10;2.00;;;;;;;7.83;100.00;100941.53;5076348;28;20208;-72
2021/10/12 02:52:59;;;;;;;0.50;0.50;;;;;;;7.86;100.00;100935.53;5076325;28;20509;-73
2021/10/12 02:55:24;;;;;;;5.80;1.47;;;;;;;7.92;100.00;100934.41;5076053;28;20606;-72
2021/10/12 02:57:50;;;;;;;1.47;1.37;;;;;;;7.93;100.00;100938.72;5094280;28;20681;-72
2021/10/12 03:00:15;;;;;;;1.27;1.07;;;;;;;7.99;100.00;100937.63;5094608;28;20196;-72
2021/10/12 03:02:40;;;;;;;1.57;1.47;;;;;;;8.02;100.00;100951.47;5094392;28;20177;-72
2021/10/12 03:05:06;;;;;;;3.93;1.93;;;;;;;8.05;100.00;100940.03;5094106;28;20174;-72
2021/10/12 03:07:31;;;;;;;2.47;2.27;;;;;;;8.07;100.00;100937.81;5075896;28;20265;-72
2021/10/12 03:09:57;;;;;;;3.17;1.33;;;;;;;8.12;100.00;100937.00;5094089;28;20604;-72
2021/10/12 03:12:22;;;;;;;2.53;1.33;;;;;;;8.15;100.00;100924.72;5076011;28;20841;-72
2021/10/12 03:14:47;;;;;;;2.00;1.80;;;;;;;8.20;100.00;100925.50;5093791;28;20629;-72
2021/10/12 03:17:13;;;;;;;1.13;1.07;;;;;;;8.23;100.00;100956.78;5094173;28;20625;-72
2021/10/12 03:19:38;;;;;;;2.27;2.03;;;;;;;8.27;100.00;100952.41;5093986;28;20212;-72
2021/10/12 03:22:11;;;;;;;2.60;2.40;;;;;;;8.28;100.00;100919.47;5093762;28;20206;-73
2021/10/12 03:24:38;;;;;;;1.10;1.10;;;;;;;8.32;100.00;100944.19;5094017;28;20154;-72
2021/10/12 03:27:04;;;;;;;0.87;0.87;;;;;;;8.34;100.00;100944.75;5093983;28;20810;-72
2021/10/12 03:29:30;;;;;;;1.33;1.23;;;;;;;8.36;100.00;100939.81;5094135;28;20637;-72
2021/10/12 03:31:55;;;;;;;1.30;0.93;;;;;;;8.38;100.00;100936.81;5093882;28;20185;-73
2021/10/12 03:34:20;;;;;;;4.13;1.83;;;;;;;8.37;100.00;100921.59;5093607;28;20177;-73
2021/10/12 03:36:46;;;;;;;1.23;1.17;;;;;;;8.38;100.00;100917.75;5093794;28;20723;-72
2021/10/12 03:39:11;;;;;;;2.50;2.30;;;;;;;8.39;100.00;100922.09;5093608;28;20197;-72
2021/10/12 03:41:36;;;;;;;0.90;0.87;;;;;;;8.39;100.00;100922.94;5075578;28;20227;-72
2021/10/12 03:44:02;;;;;;;2.17;1.63;;;;;;;8.40;100.00;100910.16;5093555;28;20174;-73
2021/10/12 03:46:27;;;;;;;4.23;2.43;;;;;;;8.39;100.00;100913.94;5093554;28;20630;-72
2021/10/12 03:48:53;;;;;;;3.53;2.33;;;;;;;8.41;100.00;100911.78;5093439;28;20637;-72
2021/10/12 03:51:18;;;;;;;2.60;2.40;;;;;;;8.42;100.00;100916.13;5075221;28;20180;-72
2021/10/12 03:53:44;;;;;;;1.53;1.43;;;;;;;8.43;100.00;100906.84;5092439;28;20181;-72
2021/10/12 03:56:09;;;;;;;1.93;1.83;;;;;;;8.44;100.00;100900.31;5075214;28;20303;-72
2021/10/12 03:58:34;;;;;;;1.10;0.93;;;;;;;8.48;100.00;100898.63;5074919;28;20302;-72
2021/10/12 04:01:00;;;;;;;11.47;1.83;;;;;;;8.48;100.00;100899.44;5093273;28;20174;-72
2021/10/12 04:03:25;;;;;;;2.27;1.57;;;;;;;8.50;100.00;100896.44;5093322;28;20178;-72
2021/10/12 04:05:50;;;;;;;0.30;0.30;;;;;;;8.50;100.00;100894.50;5074588;28;20194;-72
2021/10/12 04:08:16;;;;;;;1.27;1.17;;;;;;;8.50;100.00;100885.53;5075020;28;20594;-73
2021/10/12 04:10:41;;;;;;;4.13;2.73;;;;;;;8.50;100.00;100880.09;5092929;28;20180;-72
2021/10/12 04:13:07;;;;;;;1.13;1.13;;;;;;;8.51;100.00;100865.38;5092951;28;20224;-73
2021/10/12 04:15:33;;;;;;;0.60;0.60;;;;;;;8.51;100.00;100855.28;5074503;28;20209;-72
2021/10/12 04:17:59;;;;;;;0.40;0.40;;;;;;;8.53;100.00;100863.16;5074556;28;20293;-72
2021/10/12 04:20:26;;;;;;;0.67;0.67;;;;;;;8.52;100.00;100867.00;5074738;28;20509;-73
2021/10/12 04:22:52;;;;;;;1.80;1.70;;;;;;;8.51;100.00;100859.91;5091978;28;20174;-73
2021/10/12 04:25:18;;;;;;;2.83;2.43;;;;;;;8.49;100.00;100852.03;5092322;28;20517;-73
2021/10/12 04:27:43;;;;;;;0.40;0.40;;;;;;;8.44;100.00;100857.53;5092513;28;20177;-73
2021/10/12 04:30:10;;;;;;;5.47;2.37;;;;;;;8.43;100.00;100860.56;5092396;28;20174;-73
2021/10/12 04:32:35;;;;;;;2.17;2.03;;;;;;;8.41;100.00;100849.97;5092460;28;20173;-73
2021/10/12 04:35:01;;;;;;;3.57;2.53;;;;;;;8.40;100.00;100842.09;5092262;28;20170;-73
2021/10/12 04:37:26;;;;;;;0.43;0.43;;;;;;;8.40;100.00;100842.09;5074229;28;20174;-73
2021/10/12 04:39:51;;;;;;;2.07;1.60;;;;;;;8.42;100.00;100839.88;5074365;28;20261;-73
2021/10/12 04:42:17;;;;;;;1.77;1.67;;;;;;;8.43;100.00;100841.50;5074150;28;20671;-73
2021/10/12 04:44:43;;;;;;;1.30;1.17;;;;;;;8.45;100.00;100844.75;5073924;28;20178;-73
2021/10/12 04:47:09;;;;;;;0.73;0.73;;;;;;;8.47;100.00;100846.06;5092043;28;20169;-73
2021/10/12 04:49:35;;;;;;;2.37;2.17;;;;;;;8.50;100.00;100834.59;5092219;28;20252;-73
2021/10/12 04:52:00;;;;;;;0.90;0.90;;;;;;;8.51;100.00;100843.59;5074104;28;20189;-72
2021/10/12 04:54:26;;;;;;;1.93;1.73;;;;;;;8.50;100.00;100841.97;5073942;28;20685;-73
2021/10/12 04:56:51;;;;;;;1.90;1.23;;;;;;;8.49;100.00;100834.91;5092073;28;20185;-73
2021/10/12 04:59:16;;;;;;;2.53;2.33;;;;;;;8.48;100.00;100841.44;5073719;28;20197;-73
2021/10/12 05:01:42;;;;;;;0.53;0.53;;;;;;;8.46;100.00;100841.72;5091898;28;20181;-73
2021/10/12 05:04:07;;;;;;;0.87;0.87;;;;;;;8.45;100.00;100831.94;5073782;28;20177;-73
2021/10/12 05:06:33;;;;;;;1.13;0.70;;;;;;;8.45;100.00;100817.53;5073495;28;20182;-73
2021/10/12 05:08:58;;;;;;;0.60;0.60;;;;;;;8.45;100.00;100825.69;5073782;28;20188;-73
2021/10/12 05:11:23;;;;;;;1.13;1.03;;;;;;;8.45;100.00;100820.25;5073703;28;20170;-73
2021/10/12 05:13:50;;;;;;;0.73;0.70;;;;;;;8.45;100.00;100814.78;5073252;28;20177;-73
2021/10/12 05:16:16;;;;;;;1.23;1.13;;;;;;;8.45;100.00;100814.78;5091854;28;20701;-73
2021/10/12 05:18:43;;;;;;;0.47;0.47;;;;;;;8.45;100.00;100809.34;5073504;28;20197;-73
2021/10/12 05:21:08;;;;;;;4.30;1.90;;;;;;;8.45;100.00;100814.78;5091716;28;20634;-73
2021/10/12 05:23:34;;;;;;;0.87;0.73;;;;;;;8.44;100.00;100811.25;5091578;28;20177;-73
2021/10/12 05:26:00;;;;;;;1.10;0.80;;;;;;;8.46;100.00;100813.69;5091654;28;20166;-73
2021/10/12 05:28:25;;;;;;;0.53;0.53;;;;;;;8.45;100.00;100807.44;5091553;28;20182;-73
2021/10/12 05:30:51;;;;;;;3.70;1.27;;;;;;;8.46;100.00;100809.06;5073384;28;20319;-72
2021/10/12 05:33:19;;;;;;;2.43;2.10;;;;;;;8.47;100.00;100802.50;5091653;28;20181;-73
2021/10/12 05:35:46;;;;;;;1.23;1.10;;;;;;;8.46;100.00;100798.16;5072981;28;20539;-73
2021/10/12 05:38:12;;;;;;;1.20;1.10;;;;;;;8.48;100.00;100806.03;5073164;28;20281;-73
2021/10/12 05:40:38;;;;;;;0.63;0.40;;;;;;;8.50;100.00;100798.41;5091605;28;20262;-73
2021/10/12 05:43:03;;;;;;;1.30;0.87;;;;;;;8.50;100.00;100792.94;5073101;28;20189;-73
2021/10/12 05:45:29;;;;;;;1.00;1.00;;;;;;;8.49;100.00;100791.31;5091053;28;20543;-73
2021/10/12 05:47:54;;;;;;;0.83;0.83;;;;;;;8.49;100.00;100792.13;5091076;28;20196;-73
2021/10/12 05:50:20;;;;;;;0.83;0.53;;;;;;;8.49;100.00;100789.41;5091325;28;20196;-73
2021/10/12 05:53:20;;;;;;;1.70;1.60;;;;;;;8.50;100.00;100785.59;5091318;28;20200;-74
2021/10/12 05:58:25;;;;;;;1.60;1.50;;;;;;;8.52;100.00;100791.56;5091210;28;20653;-74
2021/10/12 06:00:51;;;;;;;1.67;1.57;;;;;;;8.53;100.00;100781.47;5088378;28;20269;-72
2021/10/12 06:03:16;;;;;;;2.63;1.70;;;;;;;8.55;100.00;100779.28;5090225;28;20269;-73
2021/10/12 06:05:41;;;;;;;1.43;1.20;;;;;;;8.55;100.00;100777.38;5091213;28;20657;-72
2021/10/12 06:08:07;;;;;;;0.70;0.70;;;;;;;8.55;100.00;100773.84;5081873;28;20273;-73
2021/10/12 06:10:32;;;;;;;0.57;0.47;;;;;;;8.58;100.00;100774.06;5091277;28;20199;-73
2021/10/12 06:12:57;;;;;;;3.20;2.00;;;;;;;8.60;100.00;100782.75;5091031;28;20170;-73
2021/10/12 06:15:23;;;;;;;0.40;0.40;;;;;;;8.64;100.00;100777.53;5090513;28;20231;-73
2021/10/12 06:17:48;;;;;;;0.93;0.83;;;;;;;8.67;100.00;100776.16;5072131;28;20296;-73
2021/10/12 06:20:13;;;;;;;1.17;0.80;;;;;;;8.67;100.00;100776.94;5090811;28;20178;-73
2021/10/12 06:22:39;;;;;;;1.50;1.40;;;;;;;8.68;100.00;100761.41;5090860;28;20170;-73
2021/10/12 06:25:04;;;;;;;1.20;1.10;;;;;;;8.67;100.00;100763.34;5072523;28;20165;-73
2021/10/12 06:27:30;;;;;;;1.83;1.17;;;;;;;8.67;100.00;100760.59;5090749;28;20660;-73
2021/10/12 06:29:55;;;;;;;3.10;1.03;;;;;;;8.68;100.00;100762.25;5091741;28;20558;-73
2021/10/12 06:32:20;;;;;;;1.13;0.53;;;;;;;8.68;100.00;100767.72;5098353;28;20182;-73
2021/10/12 06:34:46;;;;;;;0.13;0.13;;;;;;;8.71;100.00;100764.41;5095115;28;20629;-73
2021/10/12 06:37:11;;;;;;;1.20;1.10;;;;;;;8.71;100.00;100755.41;5073303;28;20174;-73
2021/10/12 06:39:37;;;;;;;3.03;1.60;;;;;;;8.72;100.00;100746.13;5072813;28;20266;-73
2021/10/12 06:42:02;;;;;;;1.00;0.93;;;;;;;8.75;100.00;100749.09;5091515;28;20641;-73
2021/10/12 06:44:28;;;;;;;1.17;1.07;;;;;;;8.76;100.00;100747.16;5090852;28;20173;-73
2021/10/12 06:46:53;;;;;;;0.73;0.63;;;;;;;8.77;100.00;100740.63;5072611;28;20173;-73
2021/10/12 06:49:19;;;;;;;0.53;0.50;;;;;;;8.77;100.00;100740.63;5072493;28;20174;-72
2021/10/12 06:51:44;;;;;;;0.87;0.87;;;;;;;8.78;100.00;100745.78;5090620;28;20173;-72
2021/10/12 06:54:09;;;;;;;0.40;0.40;;;;;;;8.81;100.00;100758.00;5086881;28;20246;-72
2021/10/12 06:56:35;;;;;;;3.40;1.13;;;;;;;8.83;100.00;100748.44;5089329;28;20196;-73
2021/10/12 06:59:00;;;;;;;0.87;0.80;;;;;;;8.86;100.00;100764.22;5090300;28;20272;-73
2021/10/12 07:01:25;;;;;;;0.80;0.80;;;;;;;8.88;100.00;100753.00;5082946;28;20178;-72
2021/10/12 07:03:51;;;;;;;0.50;0.50;;;;;;;8.89;100.00;100760.09;5090117;28;20697;-72
2021/10/12 07:06:16;;;;;;;0.77;0.77;;;;;;;8.91;100.00;100758.69;5072175;28;20803;-73
2021/10/12 07:08:41;;;;;;;0.60;0.60;;;;;;;8.93;100.00;100761.91;5090725;28;20176;-72
2021/10/12 07:11:07;;;;;;;1.07;0.77;;;;;;;8.98;100.00;100757.53;5090265;28;20174;-72
2021/10/12 07:13:33;;;;;;;0.40;0.40;;;;;;;9.02;100.00;100764.00;5090247;28;20169;-73
2021/10/12 07:15:58;;;;;;;1.00;1.00;;;;;;;9.01;100.00;100760.47;5090257;28;20541;-73
2021/10/12 07:18:24;;;;;;;0.83;0.83;;;;;;;9.03;100.00;100757.44;5090405;28;20216;-73
2021/10/12 07:20:50;;;;;;;0.83;0.83;;;;;;;9.02;100.00;100770.25;5090554;28;20213;-73
2021/10/12 07:23:17;;;;;;;6.03;1.33;;;;;;;9.05;100.00;100774.31;5072113;28;20272;-72
2021/10/12 07:25:43;;;;;;;1.67;1.57;;;;;;;9.06;100.00;100767.75;5090109;28;20170;-73
2021/10/12 07:28:09;;;;;;;1.40;1.10;;;;;;;9.07;100.00;100767.47;5071932;28;20178;-72
2021/10/12 07:30:34;;;;;;;1.30;1.20;;;;;;;9.07;100.00;100770.19;5074738;28;20189;-73
2021/10/12 07:32:59;;;;;;;3.10;2.27;;;;;;;9.01;100.00;100778.75;5093736;28;20518;-72
2021/10/12 07:35:25;;;;;;;5.40;1.93;;;;;;;8.89;100.00;100788.13;5093450;28;20661;-73
2021/10/12 07:37:50;;;;;;;1.30;0.90;;;;;;;8.77;100.00;100776.03;5093594;28;20288;-74
2021/10/12 07:40:16;;;;;;;1.10;1.00;;;;;;;8.94;100.00;100798.16;5093794;28;20178;-73
2021/10/12 07:42:41;;;;;;;0.80;0.77;;;;;;;8.93;100.00;100794.63;5093606;28;20174;-74
2021/10/12 07:45:07;;;;;;;1.83;1.10;;;;;;;8.90;100.00;100792.47;5093325;28;20170;-74
2021/10/12 07:47:33;;;;;;;1.30;0.80;;;;;;;8.95;100.00;100777.97;5093365;28;20174;-74
2021/10/12 07:49:58;;;;;;;0.80;0.80;;;;;;;8.83;100.00;100774.88;5093539;28;20223;-74
2021/10/12 07:52:23;;;;;;;1.27;0.90;;;;;;;8.71;100.00;100767.13;5093368;28;20630;-76
2021/10/12 07:54:58;;;;;;;2.00;1.13;;;;;;;8.74;100.00;100773.91;5093260;28;20173;-77
2021/10/12 07:57:23;;;;;;;1.07;0.90;;;;;;;8.60;100.00;100771.06;5093231;28;20448;-74
2021/10/12 07:59:49;;;;;;;2.87;0.90;;;;;;;8.48;100.00;100776.09;5075007;28;20613;-73
2021/10/12 08:02:16;;;;;;;1.93;1.00;;;;;;;8.40;100.00;100776.75;5093028;28;20204;-73
2021/10/12 08:04:42;;;;;;;1.47;1.07;;;;;;;8.41;100.00;100773.72;5093110;28;20184;-74
2021/10/12 08:07:09;;;;;;;1.90;0.90;;;;;;;8.26;100.00;100768.41;5093222;28;20186;-74
2021/10/12 08:09:35;;;;;;;1.40;1.00;;;;;;;8.30;100.00;100772.97;5075076;28;20216;-74
2021/10/12 08:12:04;;;;;;;1.43;1.17;;;;;;;8.27;100.00;100768.13;5093026;28;20174;-74
2021/10/12 08:14:30;;;;;;;2.07;1.43;;;;;;;8.51;100.00;100798.09;5074518;28;20686;-75
2021/10/12 08:16:56;;;;;;;2.03;1.83;;;;;;;8.67;100.00;100779.69;5092982;28;20743;-74
2021/10/12 08:19:21;;;;;;;3.80;1.43;;;;;;;8.72;100.00;100787.81;5092775;28;20213;-68
2021/10/12 08:21:47;;;;;;;4.20;1.10;;;;;;;8.95;100.00;100778.78;5093247;28;20231;-73
2021/10/12 08:24:13;;;;;;;1.70;1.40;;;;;;;8.93;100.00;100785.63;5092559;28;20181;-73
2021/10/12 08:26:39;;;;;;;2.50;1.67;;;;;;;8.93;100.00;100774.72;5092858;28;20170;-73
2021/10/12 08:29:05;;;;;;;1.43;1.33;;;;;;;9.00;100.00;100777.94;5074593;28;20181;-73
2021/10/12 08:31:30;;;;;;;0.83;0.70;;;;;;;9.01;100.00;100770.56;5074494;28;20646;-74
2021/10/12 08:33:56;;;;;;;2.23;1.27;;;;;;;9.04;100.00;100772.69;5092509;28;20181;-73
2021/10/12 08:36:21;;;;;;;1.03;0.93;;;;;;;9.04;100.00;100769.97;5092967;28;20170;-73
2021/10/12 08:38:52;;;;;;;1.17;1.07;;;;;;;9.13;100.00;100768.22;5074018;28;20206;-73
2021/10/12 08:41:20;;;;;;;1.43;1.33;;;;;;;9.24;100.00;100765.03;5074000;28;20209;-74
2021/10/12 08:43:46;;;;;;;2.40;1.20;;;;;;;9.28;100.00;100759.81;5091982;28;20698;-73
2021/10/12 08:46:12;;;;;;;1.07;0.93;;;;;;;9.31;100.00;100770.13;5092377;28;20256;-73
2021/10/12 08:48:38;;;;;;;0.80;0.80;;;;;;;9.33;100.00;100758.94;5092334;28;20253;-74
2021/10/12 08:51:05;;;;;;;0.53;0.53;;;;;;;9.33;100.00;100762.47;5074066;28;20265;-73
2021/10/12 08:53:32;;;;;;;0.80;0.77;;;;;;;9.32;100.00;100771.75;5073951;28;20189;-74
2021/10/12 08:55:59;;;;;;;0.67;0.60;;;;;;;9.31;100.00;100759.22;5073874;28;20268;-73
2021/10/12 08:58:24;;;;;;;0.90;0.90;;;;;;;9.35;100.00;100759.44;5073679;28;20206;-73
2021/10/12 09:01:07;;;;;;;0.93;0.87;;;;;;;9.38;100.00;100762.38;5073839;28;20182;-73
2021/10/12 09:06:33;;;;;;;0.60;0.60;;;;;;;9.44;100.00;100763.13;5092008;28;20263;-73
2021/10/12 09:09:07;;;;;;;0.90;0.60;;;;;;;9.55;100.00;100759.16;5091771;28;20252;-73
2021/10/12 09:11:34;;;;;;;0.77;0.77;;;;;;;9.54;100.00;100760.22;5091892;28;20178;-73
2021/10/12 09:14:04;;;;;;;0.43;0.40;;;;;;;9.53;100.00;100810.44;5073299;28;20184;-73
2021/10/12 09:16:37;;;;;;;0.57;0.30;;;;;;;9.59;100.00;100756.63;5073601;28;20196;-73
2021/10/12 09:19:05;;;;;;;1.40;0.30;;;;;;;9.63;100.00;100757.66;5091929;28;20567;-73
2021/10/12 09:21:46;;;;;;;1.80;0.70;;;;;;;9.70;100.00;100758.91;5073535;28;20177;-73
2021/10/12 09:24:15;;;;;;;0.57;0.57;;;;;;;9.67;100.00;100755.94;5091272;28;20181;-73
2021/10/12 09:26:43;;;;;;;0.80;0.27;;;;;;;9.72;100.00;100758.59;5073339;28;20226;-73
2021/10/12 09:31:50;;;;;;;0.83;0.60;;;;;;;9.89;100.00;100752.59;5091585;28;20311;-73
2021/10/12 09:34:18;;;;;;;0.10;0.10;;;;;;;9.83;100.00;100746.41;5090985;28;20174;-72
2021/10/12 09:36:45;;;;;;;1.23;0.60;;;;;;;9.84;100.00;100751.56;5091204;28;20174;-73
2021/10/12 09:39:15;;;;;;;0.47;0.40;;;;;;;9.79;100.00;100748.91;5072944;28;20216;-73
2021/10/12 09:42:05;;;;;;;0.40;0.40;;;;;;;9.94;100.00;100761.50;5091453;28;20170;-73
2021/10/12 09:44:31;;;;;;;0.23;0.23;;;;;;;9.90;100.00;100752.28;5057879;28;20263;-73
2021/10/12 09:47:16;;;;;;;1.13;0.60;;;;;;;10.07;100.00;100758.00;5090884;28;20409;-73
2021/10/12 09:49:44;;;;;;;0.67;0.37;;;;;;;10.16;100.00;100768.22;5072797;28;20180;-73
2021/10/12 09:52:13;;;;;;;7.13;0.60;;;;;;;10.25;100.00;100761.78;5072098;28;20277;-73
2021/10/12 09:54:46;;;;;;;0.40;0.40;;;;;;;10.29;100.00;100753.81;5072387;28;20181;-72
2021/10/12 09:57:13;;;;;;;2.50;0.43;;;;;;;10.21;100.00;100743.56;5090817;28;20255;-73
2021/10/12 09:59:38;;;;;;;2.60;0.47;;;;;;;10.20;100.00;100739.22;5072444;28;20210;-73
2021/10/12 10:02:03;;;;;;;0.40;0.40;;;;;;;10.18;100.00;100744.16;5072671;28;20334;-73
2021/10/12 10:04:29;;;;;;;4.70;0.60;;;;;;;10.12;100.00;100741.50;5090644;28;20591;-72
2021/10/12 10:07:04;;;;;;;1.87;0.60;;;;;;;10.26;100.00;100743.47;5090582;28;20185;-73
2021/10/12 10:09:31;;;;;;;1.40;1.30;;;;;;;10.36;100.00;100744.09;5090662;28;20572;-73
2021/10/12 10:11:58;;;;;;;1.73;0.60;;;;;;;10.50;100.00;100751.50;5072458;28;20219;-73
2021/10/12 10:14:24;;;;;;;4.57;0.63;;;;;;;10.58;100.00;100742.63;5087720;28;20182;-73
2021/10/12 10:16:57;;;;;;;2.00;0.60;;;;;;;10.67;100.00;100744.31;5071045;28;20207;-72
2021/10/12 10:19:26;;;;;;;1.37;0.70;;;;;;;10.72;100.00;100743.41;5090503;28;20216;-72
2021/10/12 10:21:52;;;;;;;0.50;0.40;;;;;;;10.68;100.00;100737.72;5079863;28;20174;-71
2021/10/12 10:24:37;;;;;;;0.17;0.17;;;;;;;10.73;100.00;100729.44;5090590;28;20507;-72
2021/10/12 10:27:03;;;;;;;3.03;0.63;;;;;;;10.81;100.00;100738.84;5090658;28;20169;-72
2021/10/12 10:29:37;;;;;;;0.70;0.40;;;;;;;10.88;100.00;100733.78;5090416;28;20673;-71
2021/10/12 10:32:24;;;;;;;3.70;0.67;;;;;;;11.07;100.00;100741.84;5090050;28;20173;-72
2021/10/12 10:35:01;;;;;;;5.27;0.87;;;;;;;11.19;100.00;100736.66;5090192;28;20220;-71
2021/10/12 10:37:28;;;;;;;1.70;0.80;;;;;;;11.25;100.00;100737.31;5072390;28;20174;-72
2021/10/12 10:40:02;;;;;;;5.30;0.87;;;;;;;11.25;100.00;100732.66;5090697;28;20259;-72
2021/10/12 10:42:27;;;;;;;1.27;0.60;;;;;;;11.27;100.00;100732.34;5072249;28;20185;-72
2021/10/12 10:44:53;;;;;;;0.97;0.50;;;;;;;11.28;100.00;100731.22;5089981;28;20253;-72
2021/10/12 10:47:40;;;;;;;3.03;0.77;;;;;;;11.46;100.00;100724.00;5090223;28;20166;-72
2021/10/12 10:50:26;;;;;;;1.63;0.60;;;;;;;11.44;100.00;100716.09;5072056;28;20165;-71
2021/10/12 10:52:57;;;;;;;6.27;0.60;;;;;;;11.37;100.00;100717.63;5072085;28;20341;-71
2021/10/12 10:55:26;;;;;;;2.07;1.17;;;;;;;11.48;100.00;100714.34;5090232;28;20170;-72
2021/10/12 10:58:00;;;;;;;1.50;0.40;;;;;;;11.66;100.00;100706.25;5071745;28;20656;-72
2021/10/12 11:00:35;;;;;;;1.53;0.73;;;;;;;11.72;100.00;100696.81;5071802;28;20177;-72
2021/10/12 11:03:01;;;;;;;2.33;0.77;;;;;;;11.71;100.00;100693.25;5072345;28;20403;-71
2021/10/12 11:05:56;;;;;;;0.87;0.50;;;;;;;11.60;100.00;100689.97;5093408;28;20221;-72
2021/10/12 11:08:23;;;;;;;0.70;0.50;;;;;;;11.49;99.76;100688.59;5058959;28;20308;-72
2021/10/12 11:11:00;;;;;;;0.87;0.60;;;;;;;11.37;100.00;100688.34;5075695;28;20178;-72
2021/10/12 11:13:52;;;;;;;1.50;0.50;;;;;;;11.25;100.00;100688.09;5093837;28;20717;-72
2021/10/12 11:16:18;;;;;;;0.50;0.50;;;;;;;11.29;100.00;100683.63;5089942;28;20239;-72
2021/10/12 11:18:45;;;;;;;2.23;0.97;;;;;;;11.47;100.00;100690.03;5093596;28;20209;-71
2021/10/12 11:21:16;;;;;;;2.40;1.10;;;;;;;11.59;100.00;100693.03;5093822;28;20231;-72
2021/10/12 11:23:47;;;;;;;0.70;0.50;;;;;;;11.56;99.74;100694.44;5072280;28;20185;-72
2021/10/12 11:26:16;;;;;;;2.43;0.70;;;;;;;11.51;99.21;100688.28;5090786;28;20196;-71
2021/10/12 11:28:51;;;;;;;2.20;0.80;;;;;;;11.50;100.00;100755.88;5093257;28;20170;-73
2021/10/12 11:31:19;;;;;;;2.43;0.80;;;;;;;11.54;98.72;100693.13;5093274;28;20288;-72